Time;durP1;ratioP1;P1;durP2;ratioP2;P2;SDS_P1;SDS_P2;PMS_P1;PMS_P2;Temp;Humidity;BMP_temperature;BMP_pressure;BME280_temperature;BME280_humidity;BME280_pressure;Samples;Min_cycle;Max_cycle;Signal;HPM_P1;HPM_P2
2022/03/15 06:50:54;;;;;;;;;;;;;;;;;;5997218;23;20730;31
2022/03/15 06:53:20;;;;;;;;;;;;;;;;;;5980369;23;19923;-83
2022/03/15 06:55:53;;;;;;;;;;;;;;;;;;5956777;24;19926;-83
2022/03/15 06:58:19;;;;;;;;;;;;;;;;;;5978503;23;19926;-83
2022/03/15 07:00:47;;;;;;;;;;;;;;;;;;5979304;23;19919;-83
2022/03/15 07:03:14;;;;;;;;;;;;;;;;;;5956034;23;20360;-82
2022/03/15 07:05:41;;;;;;;;;;;;;;;;;;5981230;23;19951;-83
2022/03/15 07:08:08;;;;;;;;;;;;;;;;;;5955339;23;19919;-83
2022/03/15 07:10:34;;;;;;;;;;;;;;;;;;5980812;23;19918;-84
2022/03/15 07:13:01;;;;;;;;;;;;;;;;;;5980753;23;20269;-85
2022/03/15 07:15:28;;;;;;;;;;;;;;;;;;5980416;23;19922;-86
2022/03/15 07:17:57;;;;;;;;;;;;;;;;;;5980900;23;19926;-85
2022/03/15 07:20:24;;;;;;;;;;;;;;;;;;5978544;23;19922;-85
2022/03/15 07:22:51;;;;;;;;;;;;;;;;;;5980099;23;19994;-85
2022/03/15 07:25:20;;;;;;;;;;;;;;;;;;5980131;23;19918;-83
2022/03/15 07:27:47;;;;;;;;;;;;;;;;;;5980761;23;20399;-85
2022/03/15 07:30:14;;;;;;;;;;;;;;;;;;5977402;23;20345;-84
2022/03/15 07:32:40;;;;;;;;;;;;;;;;;;5978097;23;19930;-83
2022/03/15 07:35:07;;;;;;;;;;;;;;;;;;5978057;23;19922;-83
2022/03/15 07:37:34;;;;;;;;;;;;;;;;;;5978331;23;19922;-83
2022/03/15 07:40:01;;;;;;;;;;;;;;;;;;5977546;23;19929;-84
2022/03/15 07:42:27;;;;;;;;;;;;;;;;;;5976880;23;20282;-83
2022/03/15 07:44:54;;;;;;;;;;;;;;;;;;5977979;23;19919;-82
2022/03/15 07:47:20;;;;;;;;;;;;;;;;;;5978461;23;19926;-82
2022/03/15 07:49:48;;;;;;;;;;;;;;;;;;5977735;23;19922;-82
2022/03/15 07:52:14;;;;;;;;;;;;;;;;;;5977184;23;19918;-83
2022/03/15 07:54:42;;;;;;;;;;;;;;;;;;5979566;23;19926;-82
2022/03/15 07:57:09;;;;;;;;;;;;;;;;;;5978113;23;19967;-83
2022/03/15 07:59:36;;;;;;;;;;;;;;;;;;5979826;23;19942;-83
2022/03/15 08:02:03;;;;;;;;;;;;;;;;;;5954543;24;19918;-83
2022/03/15 08:04:30;;;;;;;;;;;;;;;;;;5978876;23;19919;-83
2022/03/15 08:06:56;;;;;;;;;;;;;;;;;;5978673;23;19925;-83
2022/03/15 08:09:23;;;;;;;;;;;;;;;;;;5978817;23;19918;-83
2022/03/15 08:11:50;;;;;;;;;;;;;;;;;;5979069;23;20397;-83
2022/03/15 08:14:16;;;;;;;;;;;;;;;;;;5954318;23;20406;-83
2022/03/15 08:16:43;;;;;;;;;;;;;;;;;;5978758;23;20387;-85
2022/03/15 08:19:11;;;;;;;;;;;;;;;;;;5952064;23;20376;-84
2022/03/15 08:21:38;;;;;;;;;;;;;;;;;;5973516;23;19922;-84
2022/03/15 08:24:06;;;;;;;;;;;;;;;;;;5972551;23;19919;-85
2022/03/15 08:26:32;;;;;;;;;;;;;;;;;;5973224;23;20430;-85
2022/03/15 08:28:59;;;;;;;;;;;;;;;;;;5973790;23;19922;-85
2022/03/15 08:31:26;;;;;;;;;;;;;;;;;;5973090;23;19923;-84
2022/03/15 08:33:53;;;;;;;;;;;;;;;;;;5973885;23;20277;-83
2022/03/15 08:36:19;;;;;;;;;;;;;;;;;;5973038;23;20295;-83
2022/03/15 08:38:47;;;;;;;;;;;;;;;;;;5973838;23;19998;-84
2022/03/15 08:41:14;;;;;;;;;;;;;;;;;;5973422;23;19919;-84
2022/03/15 08:43:40;;;;;;;;;;;;;;;;;;5973466;23;20402;-84
2022/03/15 08:46:07;;;;;;;;;;;;;;;;;;5973069;23;19922;-87
2022/03/15 08:48:34;;;;;;;;;;;;;;;;;;5949500;24;19926;-84
2022/03/15 08:51:01;;;;;;;;;;;;;;;;;;5972332;23;19955;-84
2022/03/15 08:53:28;;;;;;;;;;;;;;;;;;5972970;23;19923;-85
2022/03/15 08:55:55;;;;;;;;;;;;;;;;;;5974140;23;19918;-85
2022/03/15 08:58:21;;;;;;;;;;;;;;;;;;5972855;23;19987;-85
2022/03/15 09:00:49;;;;;;;;;;;;;;;;;;5973325;23;19930;-85
2022/03/15 09:03:16;;;;;;;;;;;;;;;;;;5973308;23;19926;-84
2022/03/15 09:05:42;;;;;;;;;;;;;;;;;;5973608;23;19926;-85
2022/03/15 09:08:14;;;;;;;;;;;;;;;;;;5973290;23;19918;-84
2022/03/15 09:10:42;;;;;;;;;;;;;;;;;;5970791;23;20429;-84
2022/03/15 09:13:09;;;;;;;;;;;;;;;;;;5971577;23;20342;-83
2022/03/15 09:15:35;;;;;;;;;;;;;;;;;;5972375;23;20027;-84
2022/03/15 09:18:02;;;;;;;;;;;;;;;;;;5973323;23;19978;-83
2022/03/15 09:20:29;;;;;;;;;;;;;;;;;;5972745;23;19922;-84
2022/03/15 09:22:55;;;;;;;;;;;;;;;;;;5973033;23;19978;-83
2022/03/15 09:25:23;;;;;;;;;;;;;;;;;;5972348;23;19922;-83
2022/03/15 09:27:49;;;;;;;;;;;;;;;;;;5972821;23;19922;-84
2022/03/15 09:30:16;;;;;;;;;;;;;;;;;;5972156;23;19971;-83
2022/03/15 09:32:43;;;;;;;;;;;;;;;;;;5974900;23;19922;-84
2022/03/15 09:35:10;;;;;;;;;;;;;;;;;;5971852;23;19957;-83
2022/03/15 09:37:36;;;;;;;;;;;;;;;;;;5975066;23;19991;-84
2022/03/15 09:40:07;;;;;;;;;;;;;;;;;;5974585;23;19967;-85
2022/03/15 09:42:35;;;;;;;;;;;;;;;;;;5950118;24;19918;-85
2022/03/15 09:45:03;;;;;;;;;;;;;;;;;;5974544;23;19922;-85
2022/03/15 09:47:35;;;;;;;;;;;;;;;;;;5971519;23;19983;-85
2022/03/15 09:50:03;;;;;;;;;;;;;;;;;;5975014;23;19926;-85
2022/03/15 09:52:30;;;;;;;;;;;;;;;;;;5973247;23;20310;-86
2022/03/15 09:54:57;;;;;;;;;;;;;;;;;;5972118;23;20652;-86
2022/03/15 09:57:24;;;;;;;;;;;;;;;;;;5974014;23;19925;-86
2022/03/15 09:59:51;;;;;;;;;;;;;;;;;;5975230;23;19919;-85
2022/03/15 10:02:17;;;;;;;;;;;;;;;;;;5974280;23;19923;-85
2022/03/15 10:04:45;;;;;;;;;;;;;;;;;;5973527;23;19926;-85
2022/03/15 10:07:12;;;;;;;;;;;;;;;;;;5965608;23;19918;-85
2022/03/15 10:09:39;;;;;;;;;;;;;;;;;;5975315;23;19928;-85
2022/03/15 10:12:08;;;;;;;;;;;;;;;;;;5973559;23;20026;-85
2022/03/15 10:14:45;;;;;;;;;;;;;;;;;;5973819;23;19927;-85
2022/03/15 10:17:14;;;;;;;;;;;;;;;;;;5974052;23;19925;-84
2022/03/15 10:19:51;;;;;;;;;;;;;;;;;;5973957;23;20431;-85
2022/03/15 10:22:22;;;;;;;;;;;;;;;;;;5971137;23;19982;-85
2022/03/15 10:24:49;;;;;;;;;;;;;;;;;;5972552;23;19922;-84
2022/03/15 10:27:16;;;;;;;;;;;;;;;;;;5971704;23;19926;-87
2022/03/15 10:29:43;;;;;;;;;;;;;;;;;;5972800;23;20319;-87
2022/03/15 10:32:10;;;;;;;;;;;;;;;;;;5974492;23;19993;-87
2022/03/15 10:34:37;;;;;;;;;;;;;;;;;;5974884;23;19918;-87
2022/03/15 10:37:04;;;;;;;;;;;;;;;;;;5972195;23;20405;-85
2022/03/15 10:39:30;;;;;;;;;;;;;;;;;;5974392;23;19926;-86
2022/03/15 10:42:00;;;;;;;;;;;;;;;;;;5972584;23;19974;-86
2022/03/15 10:44:28;;;;;;;;;;;;;;;;;;5973470;23;19923;-86
2022/03/15 10:46:58;;;;;;;;;;;;;;;;;;5974473;23;19929;-86
2022/03/15 10:49:25;;;;;;;;;;;;;;;;;;5973924;23;20326;-87
2022/03/15 10:51:52;;;;;;;;;;;;;;;;;;5974049;23;20364;-87
2022/03/15 10:54:23;;;;;;;;;;;;;;;;;;5973564;23;19926;-87
2022/03/15 10:56:57;;;;;;;;;;;;;;;;;;5971927;23;19922;-86
2022/03/15 10:59:24;;;;;;;;;;;;;;;;;;5973933;23;19970;-88
2022/03/15 11:01:52;;;;;;;;;;;;;;;;;;5972241;23;19929;-86
2022/03/15 11:04:20;;;;;;;;;;;;;;;;;;5972255;23;19923;-85
2022/03/15 11:06:48;;;;;;;;;;;;;;;;;;5974259;23;19987;-84
2022/03/15 11:09:21;;;;;;;;;;;;;;;;;;5973625;23;19930;-85
2022/03/15 11:11:59;;;;;;;;;;;;;;;;;;5974290;23;19922;-85
2022/03/15 11:15:04;;;;;;;;;;;;;;;;;;5973015;23;19930;-85
2022/03/15 11:17:26;;;;;;;;;;;;;;;;;;5971215;23;19922;-84
2022/03/15 11:19:58;;;;;;;;;;;;;;;;;;5977978;23;19986;-83
2022/03/15 11:22:30;;;;;;;;;;;;;;;;;;5975323;23;19927;-85
2022/03/15 11:25:15;;;;;;;;;;;;;;;;;;5979192;23;19918;-84
2022/03/15 11:27:42;;;;;;;;;;;;;;;;;;5978884;23;19922;-85
2022/03/15 11:30:11;;;;;;;;;;;;;;;;;;5978615;23;19918;-86
2022/03/15 11:32:38;;;;;;;;;;;;;;;;;;5979348;23;19930;-84
2022/03/15 11:35:07;;;;;;;;;;;;;;;;;;5978734;23;19978;-83
2022/03/15 11:37:34;;;;;;;;;;;;;;;;;;5979767;23;19918;-84
2022/03/15 11:40:04;;;;;;;;;;;;;;;;;;5979370;23;19922;-84
2022/03/15 11:42:32;;;;;;;;;;;;;;;;;;5978866;23;19974;-83
2022/03/15 11:45:16;;;;;;;;;;;;;;;;;;5978503;23;20298;-84
2022/03/15 11:48:11;;;;;;;;;;;;;;;;;;5978877;23;19922;-84
2022/03/15 11:50:56;;;;;;;;;;;;;;;;;;5979137;23;19926;-84
2022/03/15 11:53:35;;;;;;;;;;;;;;;;;;5951240;24;19923;-84
2022/03/15 11:56:11;;;;;;;;;;;;;;;;;;5950822;24;19975;-85
2022/03/15 11:58:38;;;;;;;;;;;;;;;;;;5951306;24;19995;-84
2022/03/15 12:01:09;;;;;;;;;;;;;;;;;;5950185;24;20031;-83
2022/03/15 12:03:47;;;;;;;;;;;;;;;;;;5951258;24;20254;-84
2022/03/15 12:06:23;;;;;;;;;;;;;;;;;;5951111;24;19926;-85
2022/03/15 12:08:51;;;;;;;;;;;;;;;;;;5951031;24;19922;-84
2022/03/15 12:11:28;;;;;;;;;;;;;;;;;;5951283;24;19922;-83
2022/03/15 12:14:30;;;;;;;;;;;;;;;;;;5951344;24;19919;-84
2022/03/15 12:16:57;;;;;;;;;;;;;;;;;;5865783;24;19920;-84
2022/03/15 12:19:35;;;;;;;;;;;;;;;;;;5865741;24;19935;-83
2022/03/15 12:22:05;;;;;;;;;;;;;;;;;;5866213;24;19989;-84
2022/03/15 12:24:35;;;;;;;;;;;;;;;;;;5866174;24;19920;-84
2022/03/15 12:27:08;;;;;;;;;;;;;;;;;;5865513;24;19924;-84
2022/03/15 12:29:38;;;;;;;;;;;;;;;;;;5865905;24;20063;-84
2022/03/15 12:32:12;;;;;;;;;;;;;;;;;;5866078;24;19978;-82
2022/03/15 12:34:43;;;;;;;;;;;;;;;;;;5866597;24;19920;-84
2022/03/15 12:37:10;;;;;;;;;;;;;;;;;;5865443;24;20275;-85
2022/03/15 12:39:37;;;;;;;;;;;;;;;;;;5866753;24;19920;-84
2022/03/15 12:42:05;;;;;;;;;;;;;;;;;;5864971;24;20248;-83
2022/03/15 12:44:50;;;;;;;;;;;;;;;;;;5844277;24;20299;-82
2022/03/15 12:47:18;;;;;;;;;;;;;;;;;;5866352;24;19919;-82
2022/03/15 12:50:04;;;;;;;;;;;;;;;;;;5865836;24;20371;-83
2022/03/15 12:52:49;;;;;;;;;;;;;;;;;;5969036;23;20001;-84
2022/03/15 12:55:19;;;;;;;;;;;;;;;;;;5978188;23;19918;-84
2022/03/15 12:57:46;;;;;;;;;;;;;;;;;;5979223;23;19919;-85
2022/03/15 13:00:16;;;;;;;;;;;;;;;;;;5977635;23;19923;-84
2022/03/15 13:02:43;;;;;;;;;;;;;;;;;;5979169;23;19986;-84
2022/03/15 13:05:11;;;;;;;;;;;;;;;;;;5975178;23;19918;-86
2022/03/15 13:07:39;;;;;;;;;;;;;;;;;;5973655;23;19985;-85
2022/03/15 13:10:08;;;;;;;;;;;;;;;;;;5972904;23;19919;-84
2022/03/15 13:12:35;;;;;;;;;;;;;;;;;;5972119;23;19989;-84
2022/03/15 13:15:02;;;;;;;;;;;;;;;;;;5972697;23;19948;-84
2022/03/15 13:17:29;;;;;;;;;;;;;;;;;;5947930;24;19986;-85
2022/03/15 13:19:56;;;;;;;;;;;;;;;;;;5973088;23;19929;-85
2022/03/15 13:22:30;;;;;;;;;;;;;;;;;;5972335;23;19922;-85
2022/03/15 13:24:58;;;;;;;;;;;;;;;;;;5973017;23;19919;-85
2022/03/15 13:27:24;;;;;;;;;;;;;;;;;;5972168;23;19926;-85
2022/03/15 13:29:51;;;;;;;;;;;;;;;;;;5972597;23;20418;-84
2022/03/15 13:32:20;;;;;;;;;;;;;;;;;;5972089;23;20262;-85
2022/03/15 13:34:53;;;;;;;;;;;;;;;;;;5973587;23;19923;-84
2022/03/15 13:37:20;;;;;;;;;;;;;;;;;;5971104;23;20363;-84
2022/03/15 13:39:47;;;;;;;;;;;;;;;;;;5971187;23;20580;-85
2022/03/15 13:42:16;;;;;;;;;;;;;;;;;;5972645;23;19926;-85
2022/03/15 13:44:48;;;;;;;;;;;;;;;;;;5973299;23;19918;-84
2022/03/15 13:47:17;;;;;;;;;;;;;;;;;;5947896;23;20275;-85
2022/03/15 13:49:47;;;;;;;;;;;;;;;;;;5948106;24;20127;-87
2022/03/15 13:52:16;;;;;;;;;;;;;;;;;;5980937;23;20389;-86
2022/03/15 13:54:50;;;;;;;;;;;;;;;;;;5972830;23;19930;-85
2022/03/15 13:57:24;;;;;;;;;;;;;;;;;;5972194;23;19933;-85
2022/03/15 14:00:01;;;;;;;;;;;;;;;;;;5972739;23;19922;-85
2022/03/15 14:02:32;;;;;;;;;;;;;;;;;;5972445;23;19926;-86
2022/03/15 14:05:03;;;;;;;;;;;;;;;;;;5972873;23;19951;-85
2022/03/15 14:07:30;;;;;;;;;;;;;;;;;;5972549;23;19922;-87
2022/03/15 14:09:57;;;;;;;;;;;;;;;;;;5972900;23;19929;-84
2022/03/15 14:12:28;;;;;;;;;;;;;;;;;;5972009;23;20006;-86
2022/03/15 14:14:54;;;;;;;;;;;;;;;;;;5972741;23;19982;-86
2022/03/15 14:17:31;;;;;;;;;;;;;;;;;;5995307;23;20010;-86
2022/03/15 14:19:58;;;;;;;;;;;;;;;;;;5975617;23;19929;-86
2022/03/15 14:22:27;;;;;;;;;;;;;;;;;;5973969;23;19933;-86
2022/03/15 14:24:57;;;;;;;;;;;;;;;;;;5973989;23;19922;-86
2022/03/15 14:27:25;;;;;;;;;;;;;;;;;;5974843;23;19923;-86
2022/03/15 14:29:53;;;;;;;;;;;;;;;;;;5974497;23;19919;-86
2022/03/15 14:32:20;;;;;;;;;;;;;;;;;;5974357;23;19998;-86
2022/03/15 14:34:53;;;;;;;;;;;;;;;;;;5995886;23;19926;-86
2022/03/15 14:37:20;;;;;;;;;;;;;;;;;;5973645;23;20311;-86
2022/03/15 14:39:47;;;;;;;;;;;;;;;;;;5974226;23;19922;-86
2022/03/15 14:42:14;;;;;;;;;;;;;;;;;;5973707;23;19929;-87
2022/03/15 14:44:43;;;;;;;;;;;;;;;;;;5974971;23;19987;-87
2022/03/15 14:47:13;;;;;;;;;;;;;;;;;;5973610;23;20358;-85
2022/03/15 14:49:43;;;;;;;;;;;;;;;;;;5974546;23;20376;-85
2022/03/15 14:52:13;;;;;;;;;;;;;;;;;;5973308;23;19979;-86
2022/03/15 14:54:40;;;;;;;;;;;;;;;;;;5974252;23;20347;-86
2022/03/15 14:57:08;;;;;;;;;;;;;;;;;;5973908;23;20345;-86
2022/03/15 14:59:38;;;;;;;;;;;;;;;;;;5974240;23;20303;-86
2022/03/15 15:02:06;;;;;;;;;;;;;;;;;;5973835;23;19942;-86
2022/03/15 15:04:34;;;;;;;;;;;;;;;;;;5974339;23;19922;-85
2022/03/15 15:07:04;;;;;;;;;;;;;;;;;;5973892;23;19922;-86
2022/03/15 15:09:30;;;;;;;;;;;;;;;;;;5973771;23;19925;-86
2022/03/15 15:12:03;;;;;;;;;;;;;;;;;;5974688;23;20307;-86
2022/03/15 15:14:31;;;;;;;;;;;;;;;;;;5974102;23;19974;-87
2022/03/15 15:17:01;;;;;;;;;;;;;;;;;;5974277;23;19923;-86
2022/03/15 15:19:30;;;;;;;;;;;;;;;;;;5973565;23;19990;-88
2022/03/15 15:21:59;;;;;;;;;;;;;;;;;;5974311;23;19923;-87
2022/03/15 15:24:28;;;;;;;;;;;;;;;;;;5973204;23;19926;-86
2022/03/15 15:26:56;;;;;;;;;;;;;;;;;;5973894;23;19929;-88
2022/03/15 15:29:24;;;;;;;;;;;;;;;;;;5973461;23;19979;-87
2022/03/15 15:31:51;;;;;;;;;;;;;;;;;;5974277;23;19926;-87
2022/03/15 15:34:19;;;;;;;;;;;;;;;;;;5973996;23;19918;-87
2022/03/15 15:36:45;;;;;;;;;;;;;;;;;;5973616;23;20356;-87
2022/03/15 15:39:12;;;;;;;;;;;;;;;;;;5972254;23;19922;-86
2022/03/15 15:41:39;;;;;;;;;;;;;;;;;;5974470;23;19975;-87
2022/03/15 15:44:06;;;;;;;;;;;;;;;;;;5973200;23;19922;-86
2022/03/15 15:46:35;;;;;;;;;;;;;;;;;;5974516;23;19922;-87
2022/03/15 15:49:04;;;;;;;;;;;;;;;;;;5973731;23;19922;-88
2022/03/15 15:51:33;;;;;;;;;;;;;;;;;;5973272;23;20436;-86
2022/03/15 15:53:59;;;;;;;;;;;;;;;;;;5971499;23;19918;-86
2022/03/15 15:56:29;;;;;;;;;;;;;;;;;;5972613;23;19923;-86
2022/03/15 15:58:56;;;;;;;;;;;;;;;;;;5973852;23;19923;-86
2022/03/15 16:01:25;;;;;;;;;;;;;;;;;;5970832;23;20346;-86
2022/03/15 16:03:54;;;;;;;;;;;;;;;;;;5972969;23;19926;-86
2022/03/15 16:06:20;;;;;;;;;;;;;;;;;;5972473;23;19983;-86
2022/03/15 16:09:58;;;;;;;;;;;;;;;;;;5073235;27;20871;-86
2022/03/15 16:12:25;;;;;;;;;;;;;;;;;;5051413;28;19979;-86
2022/03/15 16:14:52;;;;;;;;;;;;;;;;;;5054267;27;20296;-88
2022/03/15 16:17:19;;;;;;;;;;;;;;;;;;5060700;28;19929;-86
2022/03/15 16:19:47;;;;;;;;;;;;;;;;;;5060575;28;19933;-83
2022/03/15 16:22:14;;;;;;;;;;;;;;;;;;5060173;28;19929;-87
2022/03/15 16:24:40;;;;;;;;;;;;;;;;;;5060969;28;20354;-85
2022/03/15 16:27:07;;;;;;;;;;;;;;;;;;5044874;28;19983;-86
2022/03/15 16:29:34;;;;;;;;;;;;;;;;;;5045713;28;19925;-87
2022/03/15 16:34:57;;;;;;;10.25;4.53;;;;;;;;;;5009593;28;20395;-87
2022/03/15 16:37:26;;;;;;;12.00;5.28;;;;;;;;;;5005234;28;20128;-86
2022/03/15 16:39:53;;;;;;;9.02;4.70;;;;;;;;;;5019919;28;20050;-85
2022/03/15 16:42:22;;;;;;;11.95;5.28;;;;;;;;;;5008668;28;20068;-86
2022/03/15 16:44:49;;;;;;;;;;;;;;;;;;5018312;28;20505;-86
2022/03/15 16:47:16;;;;;;;12.82;6.30;;;;;;;;;;5030357;28;19925;-86
2022/03/15 16:49:43;;;;;;;16.67;5.10;;;;;;;;;;5016727;28;20080;-84
2022/03/15 16:52:11;;;;;;;10.80;5.22;;;;;;;;;;5019005;28;20038;-85
2022/03/15 16:54:40;;;;;;;13.48;6.03;;;;;;;;;;5021907;28;20049;-84
2022/03/15 16:57:07;;;;;;;17.08;6.60;;;;;;;;;;5021156;28;20061;-84
2022/03/15 16:59:36;;;;;;;14.70;7.18;;;;;;;;;;5022360;28;20045;-84
2022/03/15 17:02:05;;;;;;;15.95;7.18;;;;;;;;;;5023253;28;20127;-86
2022/03/15 17:07:19;;;;;;;17.75;7.45;;;;;;;;;;5057501;28;20044;-85
2022/03/15 17:09:47;;;;;;;15.60;6.40;;;;;;;;;;5056318;28;20592;-85
2022/03/15 17:12:15;;;;;;;15.65;6.78;;;;;;;;;;5058096;28;20515;-85
2022/03/15 17:14:43;;;;;;;16.38;7.22;;;;;;;;;;5061414;28;20051;-84
2022/03/15 17:17:13;;;;;;;15.65;7.00;;;;;;;;;;5060356;28;20452;-84
2022/03/15 17:19:45;;;;;;;15.30;6.57;;;;;;;;;;5072948;28;20055;-86
2022/03/15 17:22:14;;;;;;;14.25;7.28;;;;;;;;;;5060261;28;20541;-85
2022/03/15 17:24:47;;;;;;;16.88;7.00;;;;;;;;;;5065115;28;20127;-85
2022/03/15 17:27:14;;;;;;;16.38;6.70;;;;;;;;;;5062285;28;20106;-87
2022/03/15 17:29:44;;;;;;;15.75;7.40;;;;;;;;;;5067223;28;20061;-87
2022/03/15 17:32:13;;;;;;;17.48;8.60;;;;;;;;;;5062715;28;20041;-85
2022/03/15 17:34:43;;;;;;;16.90;7.57;;;;;;;;;;5064769;28;20044;-86
2022/03/15 17:37:13;;;;;;;20.33;8.15;;;;;;;;;;5060005;28;20044;-87
2022/03/15 17:39:40;;;;;;;21.20;8.30;;;;;;;;;;5057720;28;20052;-88
2022/03/15 17:42:11;;;;;;;21.63;7.53;;;;;;;;;;5064155;28;20045;-88
2022/03/15 17:44:47;;;;;;;13.38;6.80;;;;;;;;;;5037370;28;20063;-87
2022/03/15 17:47:17;;;;;;;15.38;6.88;;;;;;;;;;5046994;28;20052;-87
2022/03/15 17:49:57;;;;;;;18.65;7.70;;;;;;;;;;5028224;28;20056;-89
2022/03/15 17:52:25;;;;;;;19.15;7.78;;;;;;;;;;5050412;28;20063;-87
2022/03/15 17:54:53;;;;;;;19.08;7.53;;;;;;;;;;5042644;28;20053;-86
2022/03/15 17:57:24;;;;;;;21.48;7.55;;;;;;;;;;5048582;28;20060;-86
2022/03/15 17:59:56;;;;;;;17.83;7.15;;;;;;;;;;5046377;28;20693;-86
2022/03/15 18:02:25;;;;;;;20.65;7.47;;;;;;;;;;5066094;28;21473;-88
2022/03/15 18:05:09;;;;;;;14.13;6.70;;;;;;;;;;5045168;28;20095;-84
2022/03/15 18:07:39;;;;;;;20.00;9.50;;;;;;;;;;5044944;28;20040;-84
2022/03/15 18:13:07;;;;;;;21.08;8.27;;;;;;;;;;5045385;28;20106;-85
2022/03/15 18:15:38;;;;;;;23.60;8.98;;;;;;;;;;5044870;28;20057;-84
2022/03/15 18:18:09;;;;;;;18.15;6.88;;;;;;;;;;5044648;28;20061;-85
2022/03/15 18:20:41;;;;;;;16.17;6.93;;;;;;;;;;5045840;28;20053;-85
2022/03/15 18:23:09;;;;;;;13.52;7.10;;;;;;;;;;5048136;28;20049;-86
2022/03/15 18:25:37;;;;;;;17.77;7.57;;;;;;;;;;5047728;28;20128;-86
2022/03/15 18:28:07;;;;;;;16.13;7.17;;;;;;;;;;5046683;28;20053;-85
2022/03/15 18:30:39;;;;;;;21.02;7.13;;;;;;;;;;5045644;28;20049;-87
2022/03/15 18:33:07;;;;;;;19.92;7.15;;;;;;;;;;5031479;28;20056;-88
2022/03/15 18:35:35;;;;;;;20.38;8.05;;;;;;;;;;5048262;28;20063;-90
2022/03/15 18:38:04;;;;;;;17.42;9.48;;;;;;;;;;5056142;28;20052;-92
2022/03/15 18:40:35;;;;;;;22.95;13.85;;;;;;;;;;5032146;28;20049;-87
2022/03/15 18:43:08;;;;;;;24.02;14.38;;;;;;;;;;5061078;28;20045;-87
2022/03/15 18:45:42;;;;;;;16.17;10.82;;;;;;;;;;5045112;28;20044;-87
2022/03/15 18:48:15;;;;;;;26.95;11.52;;;;;;;;;;5050554;28;20072;-88
2022/03/15 18:50:45;;;;;;;27.77;16.67;;;;;;;;;;5049407;28;20053;-89
2022/03/15 18:53:13;;;;;;;26.00;15.10;;;;;;;;;;5053118;28;20146;-88
2022/03/15 18:55:42;;;;;;;39.83;21.73;;;;;;;;;;5053415;28;20445;-87
2022/03/15 18:58:10;;;;;;;29.77;15.32;;;;;;;;;;5047628;28;20302;-89
2022/03/15 19:00:37;;;;;;;31.00;13.13;;;;;;;;;;5048459;28;20083;-89
2022/03/15 19:03:07;;;;;;;38.42;20.48;;;;;;;;;;5035608;28;20092;-88
2022/03/15 19:05:38;;;;;;;36.75;16.45;;;;;;;;;;5048079;28;20044;-88
2022/03/15 19:08:08;;;;;;;27.48;15.00;;;;;;;;;;5044787;28;20041;-83
2022/03/15 19:10:36;;;;;;;20.58;13.60;;;;;;;;;;5056383;28;20516;-83
2022/03/15 19:13:04;;;;;;;18.80;11.50;;;;;;;;;;5048602;28;20133;-84
2022/03/15 19:15:34;;;;;;;25.98;10.63;;;;;;;;;;5044859;28;20037;-83
2022/03/15 19:18:05;;;;;;;17.67;9.15;;;;;;;;;;5044178;28;20102;-84
2022/03/15 19:20:37;;;;;;;18.48;8.52;;;;;;;;;;5051411;28;20458;-86
2022/03/15 19:23:07;;;;;;;16.63;8.38;;;;;;;;;;5048645;28;20831;-85
2022/03/15 19:25:37;;;;;;;23.15;8.80;;;;;;;;;;5049263;28;20056;-86
2022/03/15 19:28:08;;;;;;;21.35;9.35;;;;;;;;;;5048409;28;20045;-85
2022/03/15 19:30:36;;;;;;;22.25;8.48;;;;;;;;;;5031962;28;20049;-87
2022/03/15 19:33:02;;;;;;;17.05;8.20;;;;;;;;;;5048986;28;20126;-86
2022/03/15 19:35:30;;;;;;;20.55;8.55;;;;;;;;;;5049525;28;20041;-85
2022/03/15 19:37:57;;;;;;;24.35;12.18;;;;;;;;;;5024413;28;20044;-86
2022/03/15 19:40:25;;;;;;;15.90;9.38;;;;;;;;;;5048506;28;20045;-87
2022/03/15 19:42:52;;;;;;;23.37;14.70;;;;;;;;;;5048767;28;20045;-86
2022/03/15 19:45:18;;;;;;;26.35;16.58;;;;;;;;;;5046475;28;20298;-85
2022/03/15 19:47:48;;;;;;;25.98;11.55;;;;;;;;;;5050017;28;20551;-86
2022/03/15 19:50:15;;;;;;;63.75;35.38;;;;;;;;;;5058335;28;20048;-85
2022/03/15 19:52:42;;;;;;;27.55;15.80;;;;;;;;;;5045795;28;20053;-85
2022/03/15 19:55:12;;;;;;;20.13;13.40;;;;;;;;;;5062179;28;20406;-85
2022/03/15 19:57:43;;;;;;;22.15;12.40;;;;;;;;;;5048078;28;20497;-85
2022/03/15 20:00:14;;;;;;;23.25;13.52;;;;;;;;;;5049233;28;20037;-85
2022/03/15 20:02:45;;;;;;;20.48;12.55;;;;;;;;;;5054162;28;20048;-85
2022/03/15 20:05:13;;;;;;;21.40;13.98;;;;;;;;;;5047264;28;20118;-86
2022/03/15 20:07:41;;;;;;;25.73;11.80;;;;;;;;;;5046026;28;20052;-82
2022/03/15 20:10:09;;;;;;;29.93;15.87;;;;;;;;;;5043936;28;20091;-84
2022/03/15 20:12:38;;;;;;;30.17;20.30;;;;;;;;;;5033250;28;20139;-84
2022/03/15 20:15:08;;;;;;;19.48;12.18;;;;;;;;;;5035190;28;20055;-85
2022/03/15 20:17:40;;;;;;;19.23;10.23;;;;;;;;;;5040448;28;20064;-85
2022/03/15 20:20:17;;;;;;;27.98;16.80;;;;;;;;;;5046434;28;20057;-85
2022/03/15 20:22:47;;;;;;;29.58;18.60;;;;;;;;;;5043440;28;20182;-85
2022/03/15 20:25:14;;;;;;;24.95;12.52;;;;;;;;;;5044044;28;20053;-83
2022/03/15 20:27:41;;;;;;;21.98;10.95;;;;;;;;;;5048672;28;20074;-86
2022/03/15 20:30:09;;;;;;;23.13;9.98;;;;;;;;;;5044721;28;20095;-85
2022/03/15 20:32:36;;;;;;;20.63;11.30;;;;;;;;;;5045002;28;20495;-85
2022/03/15 20:35:02;;;;;;;19.27;9.90;;;;;;;;;;5061043;28;20294;-85
2022/03/15 20:37:29;;;;;;;21.13;9.27;;;;;;;;;;5055544;28;20045;-85
2022/03/15 20:39:56;;;;;;;24.38;9.13;;;;;;;;;;5053909;28;20048;-87
2022/03/15 20:42:24;;;;;;;28.10;14.00;;;;;;;;;;5061683;28;20425;-85
2022/03/15 20:44:55;;;;;;;27.70;10.80;;;;;;;;;;5044156;28;20069;-83
2022/03/15 20:47:24;;;;;;;27.52;11.00;;;;;;;;;;5044364;28;20496;-83
2022/03/15 20:49:51;;;;;;;25.70;9.77;;;;;;;;;;5043964;28;20060;-84
2022/03/15 20:52:19;;;;;;;30.60;11.05;;;;;;;;;;5043930;28;20049;-84
2022/03/15 20:54:46;;;;;;;33.97;12.03;;;;;;;;;;5043803;28;20424;-83
2022/03/15 20:57:16;;;;;;;26.15;10.35;;;;;;;;;;5044163;28;20333;-84
2022/03/15 20:59:44;;;;;;;21.10;9.82;;;;;;;;;;5044097;28;20063;-86
2022/03/15 21:02:11;;;;;;;22.65;11.02;;;;;;;;;;5046727;28;20053;-84
2022/03/15 21:04:39;;;;;;;26.27;11.50;;;;;;;;;;5037745;28;20045;-85
2022/03/15 21:07:07;;;;;;;;;;;;;;;;;;5050428;28;20041;-84
2022/03/15 21:09:34;;;;;;;20.15;9.80;;;;;;;;;;5045731;28;19920;-83
2022/03/15 21:12:01;;;;;;;32.17;10.43;;;;;;;;;;5046353;28;20596;-84
2022/03/15 21:14:31;;;;;;;29.27;10.57;;;;;;;;;;5044414;28;20049;-84
2022/03/15 21:17:02;;;;;;;28.70;10.60;;;;;;;;;;5042824;28;20098;-85
2022/03/15 21:19:30;;;;;;;24.20;10.15;;;;;;;;;;5042559;28;20130;-84
2022/03/15 21:21:58;;;;;;;;;;;;;;;;;;5047614;28;20037;-85
2022/03/15 21:24:27;;;;;;;26.63;10.23;;;;;;;;;;5046232;28;19981;-86
2022/03/15 21:26:57;;;;;;;30.77;12.02;;;;;;;;;;5047667;28;20153;-84
2022/03/15 21:29:24;;;;;;;27.33;11.30;;;;;;;;;;5047316;28;20041;-84
2022/03/15 21:31:51;;;;;;;33.38;12.55;;;;;;;;;;5046120;28;20048;-84
2022/03/15 21:34:19;;;;;;;29.25;11.73;;;;;;;;;;5049474;28;20043;-84
2022/03/15 21:36:46;;;;;;;31.90;12.00;;;;;;;;;;5048972;28;20055;-85
2022/03/15 21:39:15;;;;;;;30.23;11.23;;;;;;;;;;5048830;28;20087;-85
2022/03/15 21:41:43;;;;;;;24.08;11.77;;;;;;;;;;5047657;28;20060;-83
2022/03/15 21:44:10;;;;;;;22.30;11.07;;;;;;;;;;5056417;28;20052;-86
2022/03/15 21:46:40;;;;;;;30.45;11.70;;;;;;;;;;5050537;28;20106;-84
2022/03/15 21:49:08;;;;;;;27.13;11.48;;;;;;;;;;5046273;28;20045;-85
2022/03/15 21:51:40;;;;;;;29.92;11.25;;;;;;;;;;5049142;28;20051;-83
2022/03/15 21:54:10;;;;;;;29.80;11.52;;;;;;;;;;5045463;28;20052;-85
2022/03/15 21:56:40;;;;;;;26.95;10.52;;;;;;;;;;5065560;28;20037;-87
2022/03/15 21:59:09;;;;;;;28.77;12.18;;;;;;;;;;5049268;28;20049;-84
2022/03/15 22:01:36;;;;;;;28.40;12.30;;;;;;;;;;5048995;28;20037;-84
2022/03/15 22:04:03;;;;;;;25.67;11.45;;;;;;;;;;5033519;28;20587;-85
2022/03/15 22:06:30;;;;;;;26.27;12.35;;;;;;;;;;5052178;28;20617;-84
2022/03/15 22:08:57;;;;;;;29.77;12.10;;;;;;;;;;5049595;28;20107;-83
2022/03/15 22:11:28;;;;;;;30.92;12.85;;;;;;;;;;5050877;28;20049;-86
2022/03/15 22:13:56;;;;;;;26.63;12.40;;;;;;;;;;5050526;28;20927;-87
2022/03/15 22:16:23;;;;;;;23.13;12.75;;;;;;;;;;5047227;28;20128;-85
2022/03/15 22:18:49;;;;;;;25.88;12.48;;;;;;;;;;5051597;28;20485;-86
2022/03/15 22:21:22;;;;;;;28.67;13.63;;;;;;;;;;5051957;28;20099;-86
2022/03/15 22:23:49;;;;;;;24.77;12.48;;;;;;;;;;5051811;28;20464;-86
2022/03/15 22:26:18;;;;;;;25.70;12.80;;;;;;;;;;5050886;28;20570;-86
2022/03/15 22:28:46;;;;;;;32.53;12.50;;;;;;;;;;5050765;28;20060;-86
